sensor_id;sensor_type;location;lat;lon;timestamp;temperature;humidity
60868;DHT22;46702;48.370;10.794;2023-04-03T00:01:12;2.90;99.90
60868;DHT22;46702;48.370;10.794;2023-04-03T00:03:37;2.90;99.90
60868;DHT22;46702;48.370;10.794;2023-04-03T00:06:04;2.80;99.90
60868;DHT22;46702;48.370;10.794;2023-04-03T00:08:32;2.80;99.90
60868;DHT22;46702;48.370;10.794;2023-04-03T00:10:58;2.80;99.90
60868;DHT22;46702;48.370;10.794;2023-04-03T00:13:24;2.80;99.90
60868;DHT22;46702;48.370;10.794;2023-04-03T00:15:50;2.90;99.90
60868;DHT22;46702;48.370;10.794;2023-04-03T00:18:17;2.80;99.90
60868;DHT22;46702;48.370;10.794;2023-04-03T00:20:43;2.80;99.90
60868;DHT22;46702;48.370;10.794;2023-04-03T00:23:08;2.90;99.90
60868;DHT22;46702;48.370;10.794;2023-04-03T00:25:34;2.80;99.90
60868;DHT22;46702;48.370;10.794;2023-04-03T00:28:00;2.80;99.90
60868;DHT22;46702;48.370;10.794;2023-04-03T00:30:26;2.80;99.90
60868;DHT22;46702;48.370;10.794;2023-04-03T00:32:53;2.80;99.90
60868;DHT22;46702;48.370;10.794;2023-04-03T00:35:19;2.80;99.90
60868;DHT22;46702;48.370;10.794;2023-04-03T00:37:45;2.80;99.90
60868;DHT22;46702;48.370;10.794;2023-04-03T00:40:13;2.80;99.90
60868;DHT22;46702;48.370;10.794;2023-04-03T00:42:41;2.80;99.90
60868;DHT22;46702;48.370;10.794;2023-04-03T00:45:32;2.70;99.90
60868;DHT22;46702;48.370;10.794;2023-04-03T00:48:00;2.70;99.90
60868;DHT22;46702;48.370;10.794;2023-04-03T00:50:28;2.80;99.90
60868;DHT22;46702;48.370;10.794;2023-04-03T00:52:55;2.80;99.90
60868;DHT22;46702;48.370;10.794;2023-04-03T00:55:22;2.80;99.90
60868;DHT22;46702;48.370;10.794;2023-04-03T00:57:48;2.80;99.90
60868;DHT22;46702;48.370;10.794;2023-04-03T01:00:17;2.80;99.90
60868;DHT22;46702;48.370;10.794;2023-04-03T01:02:44;2.70;99.90
60868;DHT22;46702;48.370;10.794;2023-04-03T01:05:11;2.80;99.90
60868;DHT22;46702;48.370;10.794;2023-04-03T01:07:37;2.70;99.90
60868;DHT22;46702;48.370;10.794;2023-04-03T01:10:07;2.70;99.90
60868;DHT22;46702;48.370;10.794;2023-04-03T01:12:44;2.70;99.90
60868;DHT22;46702;48.370;10.794;2023-04-03T01:15:14;2.70;99.90
60868;DHT22;46702;48.370;10.794;2023-04-03T01:17:46;2.70;99.90
60868;DHT22;46702;48.370;10.794;2023-04-03T01:28:18;2.70;99.90
60868;DHT22;46702;48.370;10.794;2023-04-03T01:33:14;2.70;99.90
60868;DHT22;46702;48.370;10.794;2023-04-03T01:35:39;2.70;99.90
60868;DHT22;46702;48.370;10.794;2023-04-03T01:38:05;2.70;99.90
60868;DHT22;46702;48.370;10.794;2023-04-03T01:40:31;2.70;99.90
60868;DHT22;46702;48.370;10.794;2023-04-03T01:42:57;2.70;99.90
60868;DHT22;46702;48.370;10.794;2023-04-03T01:45:22;2.70;99.90
60868;DHT22;46702;48.370;10.794;2023-04-03T01:47:48;2.70;99.90
60868;DHT22;46702;48.370;10.794;2023-04-03T01:50:13;2.70;99.90
60868;DHT22;46702;48.370;10.794;2023-04-03T01:52:39;2.60;99.90
60868;DHT22;46702;48.370;10.794;2023-04-03T01:55:06;2.60;99.90
60868;DHT22;46702;48.370;10.794;2023-04-03T01:57:31;2.60;99.90
60868;DHT22;46702;48.370;10.794;2023-04-03T01:59:57;2.60;99.90
60868;DHT22;46702;48.370;10.794;2023-04-03T02:02:22;2.60;99.90
60868;DHT22;46702;48.370;10.794;2023-04-03T02:04:48;2.60;99.90
60868;DHT22;46702;48.370;10.794;2023-04-03T02:07:13;2.60;99.90
60868;DHT22;46702;48.370;10.794;2023-04-03T02:09:39;2.60;99.90
60868;DHT22;46702;48.370;10.794;2023-04-03T02:12:05;2.60;99.90
60868;DHT22;46702;48.370;10.794;2023-04-03T02:14:30;2.60;99.90
60868;DHT22;46702;48.370;10.794;2023-04-03T02:16:56;2.60;99.90
60868;DHT22;46702;48.370;10.794;2023-04-03T02:19:22;2.60;99.90
60868;DHT22;46702;48.370;10.794;2023-04-03T02:21:48;2.60;99.90
60868;DHT22;46702;48.370;10.794;2023-04-03T02:24:13;2.60;99.90
60868;DHT22;46702;48.370;10.794;2023-04-03T02:26:39;2.60;99.90
60868;DHT22;46702;48.370;10.794;2023-04-03T02:29:04;2.60;99.90
60868;DHT22;46702;48.370;10.794;2023-04-03T02:31:31;2.60;99.90
60868;DHT22;46702;48.370;10.794;2023-04-03T02:33:57;2.60;99.90
60868;DHT22;46702;48.370;10.794;2023-04-03T02:36:22;2.60;99.90
60868;DHT22;46702;48.370;10.794;2023-04-03T02:38:48;2.60;99.90
60868;DHT22;46702;48.370;10.794;2023-04-03T02:41:13;2.60;99.90
60868;DHT22;46702;48.370;10.794;2023-04-03T02:43:39;2.60;99.90
60868;DHT22;46702;48.370;10.794;2023-04-03T02:46:05;2.60;99.90
60868;DHT22;46702;48.370;10.794;2023-04-03T02:48:31;2.60;99.90
60868;DHT22;46702;48.370;10.794;2023-04-03T02:50:57;2.60;99.90
60868;DHT22;46702;48.370;10.794;2023-04-03T02:53:23;2.60;99.90
60868;DHT22;46702;48.370;10.794;2023-04-03T02:55:49;2.60;99.90
60868;DHT22;46702;48.370;10.794;2023-04-03T02:58:14;2.60;99.90
60868;DHT22;46702;48.370;10.794;2023-04-03T03:00:40;2.60;99.90
60868;DHT22;46702;48.370;10.794;2023-04-03T03:03:06;2.60;99.90
60868;DHT22;46702;48.370;10.794;2023-04-03T03:05:32;2.50;99.90
60868;DHT22;46702;48.370;10.794;2023-04-03T03:07:57;2.50;99.90
60868;DHT22;46702;48.370;10.794;2023-04-03T03:10:23;2.50;99.90
60868;DHT22;46702;48.370;10.794;2023-04-03T03:12:49;2.50;99.90
60868;DHT22;46702;48.370;10.794;2023-04-03T03:15:15;2.50;99.90
60868;DHT22;46702;48.370;10.794;2023-04-03T03:17:42;2.50;99.90
60868;DHT22;46702;48.370;10.794;2023-04-03T03:20:08;2.50;99.90
60868;DHT22;46702;48.370;10.794;2023-04-03T03:22:35;2.50;99.90
60868;DHT22;46702;48.370;10.794;2023-04-03T03:25:01;2.50;99.90
60868;DHT22;46702;48.370;10.794;2023-04-03T03:27:28;2.50;99.90
60868;DHT22;46702;48.370;10.794;2023-04-03T03:29:53;2.60;99.90
60868;DHT22;46702;48.370;10.794;2023-04-03T03:32:19;2.50;99.90
60868;DHT22;46702;48.370;10.794;2023-04-03T03:34:44;2.50;99.90
60868;DHT22;46702;48.370;10.794;2023-04-03T03:37:10;2.50;99.90
60868;DHT22;46702;48.370;10.794;2023-04-03T03:39:36;2.50;99.90
60868;DHT22;46702;48.370;10.794;2023-04-03T03:42:01;2.50;99.90
60868;DHT22;46702;48.370;10.794;2023-04-03T03:44:27;2.40;99.90
60868;DHT22;46702;48.370;10.794;2023-04-03T03:46:55;2.40;99.90
60868;DHT22;46702;48.370;10.794;2023-04-03T03:49:20;2.50;99.90
60868;DHT22;46702;48.370;10.794;2023-04-03T03:51:46;2.50;99.90
60868;DHT22;46702;48.370;10.794;2023-04-03T03:54:12;2.50;99.90
60868;DHT22;46702;48.370;10.794;2023-04-03T03:56:38;2.50;99.90
60868;DHT22;46702;48.370;10.794;2023-04-03T03:59:04;2.50;99.90
60868;DHT22;46702;48.370;10.794;2023-04-03T04:01:31;2.50;99.90
60868;DHT22;46702;48.370;10.794;2023-04-03T04:03:57;2.40;99.90
60868;DHT22;46702;48.370;10.794;2023-04-03T04:06:22;2.40;99.90
60868;DHT22;46702;48.370;10.794;2023-04-03T04:08:48;2.40;99.90
60868;DHT22;46702;48.370;10.794;2023-04-03T04:11:14;2.40;99.90
60868;DHT22;46702;48.370;10.794;2023-04-03T04:13:40;2.40;99.90
60868;DHT22;46702;48.370;10.794;2023-04-03T04:16:06;2.40;99.90
60868;DHT22;46702;48.370;10.794;2023-04-03T04:18:32;2.50;99.90
60868;DHT22;46702;48.370;10.794;2023-04-03T04:20:57;2.40;99.90
60868;DHT22;46702;48.370;10.794;2023-04-03T04:23:23;2.40;99.90
60868;DHT22;46702;48.370;10.794;2023-04-03T04:25:49;2.40;99.90
60868;DHT22;46702;48.370;10.794;2023-04-03T04:28:15;2.40;99.90
60868;DHT22;46702;48.370;10.794;2023-04-03T04:30:41;2.40;99.90
60868;DHT22;46702;48.370;10.794;2023-04-03T04:33:07;2.40;99.90
60868;DHT22;46702;48.370;10.794;2023-04-03T04:35:33;2.40;99.90
60868;DHT22;46702;48.370;10.794;2023-04-03T04:37:59;2.40;99.90
60868;DHT22;46702;48.370;10.794;2023-04-03T04:40:25;2.40;99.90
60868;DHT22;46702;48.370;10.794;2023-04-03T04:42:50;2.40;99.90
60868;DHT22;46702;48.370;10.794;2023-04-03T04:45:16;2.30;99.90
60868;DHT22;46702;48.370;10.794;2023-04-03T04:47:42;2.30;99.90
60868;DHT22;46702;48.370;10.794;2023-04-03T04:50:08;2.40;99.90
60868;DHT22;46702;48.370;10.794;2023-04-03T04:52:34;2.40;99.90
60868;DHT22;46702;48.370;10.794;2023-04-03T04:54:59;2.30;99.90
60868;DHT22;46702;48.370;10.794;2023-04-03T04:57:25;2.40;99.90
60868;DHT22;46702;48.370;10.794;2023-04-03T04:59:51;2.30;99.90
60868;DHT22;46702;48.370;10.794;2023-04-03T05:02:17;2.40;99.90
60868;DHT22;46702;48.370;10.794;2023-04-03T05:04:43;2.30;99.90
60868;DHT22;46702;48.370;10.794;2023-04-03T05:07:09;2.40;99.90
60868;DHT22;46702;48.370;10.794;2023-04-03T05:09:34;2.40;99.90
60868;DHT22;46702;48.370;10.794;2023-04-03T05:12:00;2.40;99.90
60868;DHT22;46702;48.370;10.794;2023-04-03T05:14:26;2.30;99.90
60868;DHT22;46702;48.370;10.794;2023-04-03T05:16:51;2.40;99.90
60868;DHT22;46702;48.370;10.794;2023-04-03T05:19:18;2.40;99.90
60868;DHT22;46702;48.370;10.794;2023-04-03T05:21:44;2.40;99.90
60868;DHT22;46702;48.370;10.794;2023-04-03T05:24:09;2.30;99.90
60868;DHT22;46702;48.370;10.794;2023-04-03T05:26:35;2.30;99.90
60868;DHT22;46702;48.370;10.794;2023-04-03T05:29:01;2.30;99.90
60868;DHT22;46702;48.370;10.794;2023-04-03T05:31:26;2.30;99.90
60868;DHT22;46702;48.370;10.794;2023-04-03T05:33:55;2.30;99.90
60868;DHT22;46702;48.370;10.794;2023-04-03T05:36:21;2.30;99.90
60868;DHT22;46702;48.370;10.794;2023-04-03T05:38:47;2.30;99.90
60868;DHT22;46702;48.370;10.794;2023-04-03T05:41:13;2.30;99.90
60868;DHT22;46702;48.370;10.794;2023-04-03T05:43:39;2.30;99.90
60868;DHT22;46702;48.370;10.794;2023-04-03T05:46:16;2.30;99.90
60868;DHT22;46702;48.370;10.794;2023-04-03T05:48:42;2.30;99.90
60868;DHT22;46702;48.370;10.794;2023-04-03T05:51:15;2.30;99.90
60868;DHT22;46702;48.370;10.794;2023-04-03T05:53:41;2.30;99.90
60868;DHT22;46702;48.370;10.794;2023-04-03T05:56:08;2.40;99.90
60868;DHT22;46702;48.370;10.794;2023-04-03T05:58:34;2.30;99.90
60868;DHT22;46702;48.370;10.794;2023-04-03T06:00:59;2.30;99.90
60868;DHT22;46702;48.370;10.794;2023-04-03T06:03:25;2.40;99.90
60868;DHT22;46702;48.370;10.794;2023-04-03T06:05:51;2.40;99.90
60868;DHT22;46702;48.370;10.794;2023-04-03T06:08:17;2.40;99.90
60868;DHT22;46702;48.370;10.794;2023-04-03T06:10:42;2.40;99.90
60868;DHT22;46702;48.370;10.794;2023-04-03T06:13:08;2.40;99.90
60868;DHT22;46702;48.370;10.794;2023-04-03T06:15:34;2.40;99.90
60868;DHT22;46702;48.370;10.794;2023-04-03T06:17:59;2.40;99.90
60868;DHT22;46702;48.370;10.794;2023-04-03T06:20:25;2.40;99.90
60868;DHT22;46702;48.370;10.794;2023-04-03T06:22:51;2.40;99.90
60868;DHT22;46702;48.370;10.794;2023-04-03T06:25:17;2.40;99.90
60868;DHT22;46702;48.370;10.794;2023-04-03T06:27:44;2.50;99.90
60868;DHT22;46702;48.370;10.794;2023-04-03T06:30:11;2.50;99.90
60868;DHT22;46702;48.370;10.794;2023-04-03T06:32:37;2.50;99.90
60868;DHT22;46702;48.370;10.794;2023-04-03T06:35:03;2.50;99.90
60868;DHT22;46702;48.370;10.794;2023-04-03T06:37:29;2.50;99.90
60868;DHT22;46702;48.370;10.794;2023-04-03T06:39:55;2.50;99.90
60868;DHT22;46702;48.370;10.794;2023-04-03T06:42:22;2.60;99.90
60868;DHT22;46702;48.370;10.794;2023-04-03T06:44:47;2.60;99.90
60868;DHT22;46702;48.370;10.794;2023-04-03T06:47:14;2.60;99.90
60868;DHT22;46702;48.370;10.794;2023-04-03T06:49:41;2.60;99.90
60868;DHT22;46702;48.370;10.794;2023-04-03T06:52:07;2.60;99.90
60868;DHT22;46702;48.370;10.794;2023-04-03T06:54:33;2.70;99.90
60868;DHT22;46702;48.370;10.794;2023-04-03T06:56:59;2.70;99.90
60868;DHT22;46702;48.370;10.794;2023-04-03T06:59:25;2.70;99.90
60868;DHT22;46702;48.370;10.794;2023-04-03T07:01:51;2.80;99.90
60868;DHT22;46702;48.370;10.794;2023-04-03T07:04:17;2.80;99.90
60868;DHT22;46702;48.370;10.794;2023-04-03T07:06:44;2.80;99.90
60868;DHT22;46702;48.370;10.794;2023-04-03T07:09:10;2.70;99.90
60868;DHT22;46702;48.370;10.794;2023-04-03T07:11:36;2.80;99.90
60868;DHT22;46702;48.370;10.794;2023-04-03T07:14:02;2.80;99.90
60868;DHT22;46702;48.370;10.794;2023-04-03T07:16:27;2.90;99.90
60868;DHT22;46702;48.370;10.794;2023-04-03T07:18:56;2.90;99.90
60868;DHT22;46702;48.370;10.794;2023-04-03T07:21:21;2.90;99.90
60868;DHT22;46702;48.370;10.794;2023-04-03T07:23:47;2.90;99.90
60868;DHT22;46702;48.370;10.794;2023-04-03T07:26:12;3.00;99.90
60868;DHT22;46702;48.370;10.794;2023-04-03T07:28:38;3.00;99.90
60868;DHT22;46702;48.370;10.794;2023-04-03T07:31:09;3.10;99.90
60868;DHT22;46702;48.370;10.794;2023-04-03T07:33:37;3.00;99.90
60868;DHT22;46702;48.370;10.794;2023-04-03T07:36:04;3.10;99.90
60868;DHT22;46702;48.370;10.794;2023-04-03T07:38:30;3.10;99.90
60868;DHT22;46702;48.370;10.794;2023-04-03T07:40:56;3.10;99.90
60868;DHT22;46702;48.370;10.794;2023-04-03T07:43:22;3.10;99.90
60868;DHT22;46702;48.370;10.794;2023-04-03T07:45:49;3.20;99.90
60868;DHT22;46702;48.370;10.794;2023-04-03T07:48:22;3.20;99.90
60868;DHT22;46702;48.370;10.794;2023-04-03T07:50:48;3.20;99.90
60868;DHT22;46702;48.370;10.794;2023-04-03T07:53:14;3.20;99.90
60868;DHT22;46702;48.370;10.794;2023-04-03T07:55:40;3.20;99.90
60868;DHT22;46702;48.370;10.794;2023-04-03T07:58:13;3.30;99.90
60868;DHT22;46702;48.370;10.794;2023-04-03T08:00:40;3.50;99.90
60868;DHT22;46702;48.370;10.794;2023-04-03T08:03:07;3.40;99.90
60868;DHT22;46702;48.370;10.794;2023-04-03T08:05:40;3.50;99.90
60868;DHT22;46702;48.370;10.794;2023-04-03T08:08:07;3.50;99.90
60868;DHT22;46702;48.370;10.794;2023-04-03T08:10:33;3.50;99.90
60868;DHT22;46702;48.370;10.794;2023-04-03T08:12:59;3.50;99.90
60868;DHT22;46702;48.370;10.794;2023-04-03T08:15:25;3.60;99.90
60868;DHT22;46702;48.370;10.794;2023-04-03T08:17:52;3.50;99.90
60868;DHT22;46702;48.370;10.794;2023-04-03T08:20:18;3.50;99.90
60868;DHT22;46702;48.370;10.794;2023-04-03T08:22:43;3.60;99.90
60868;DHT22;46702;48.370;10.794;2023-04-03T08:25:09;3.60;99.90
60868;DHT22;46702;48.370;10.794;2023-04-03T08:27:35;3.60;99.90
60868;DHT22;46702;48.370;10.794;2023-04-03T08:30:01;3.70;99.90
60868;DHT22;46702;48.370;10.794;2023-04-03T08:32:27;3.80;99.90
60868;DHT22;46702;48.370;10.794;2023-04-03T08:34:52;3.80;99.90
60868;DHT22;46702;48.370;10.794;2023-04-03T08:37:18;3.80;99.90
60868;DHT22;46702;48.370;10.794;2023-04-03T08:39:44;3.80;99.90
60868;DHT22;46702;48.370;10.794;2023-04-03T08:42:19;3.90;99.90
60868;DHT22;46702;48.370;10.794;2023-04-03T08:48:21;4.00;99.90
60868;DHT22;46702;48.370;10.794;2023-04-03T08:50:58;3.90;99.90
60868;DHT22;46702;48.370;10.794;2023-04-03T08:53:30;3.90;99.90
60868;DHT22;46702;48.370;10.794;2023-04-03T08:55:58;3.90;99.90
60868;DHT22;46702;48.370;10.794;2023-04-03T08:58:35;4.00;99.90
60868;DHT22;46702;48.370;10.794;2023-04-03T09:04:14;4.00;99.90
60868;DHT22;46702;48.370;10.794;2023-04-03T09:06:43;4.00;99.90
60868;DHT22;46702;48.370;10.794;2023-04-03T09:12:13;4.00;99.90
60868;DHT22;46702;48.370;10.794;2023-04-03T09:15:02;3.90;99.90
60868;DHT22;46702;48.370;10.794;2023-04-03T09:20:56;3.80;99.90
60868;DHT22;46702;48.370;10.794;2023-04-03T09:26:08;3.80;99.90
60868;DHT22;46702;48.370;10.794;2023-04-03T09:28:39;3.90;99.90
60868;DHT22;46702;48.370;10.794;2023-04-03T09:31:26;3.90;99.90
60868;DHT22;46702;48.370;10.794;2023-04-03T09:33:56;3.90;99.90
60868;DHT22;46702;48.370;10.794;2023-04-03T09:37:01;3.90;99.90
60868;DHT22;46702;48.370;10.794;2023-04-03T09:39:32;3.90;99.90
60868;DHT22;46702;48.370;10.794;2023-04-03T09:44:27;3.80;99.90
60868;DHT22;46702;48.370;10.794;2023-04-03T09:46:53;3.70;99.90
60868;DHT22;46702;48.370;10.794;2023-04-03T09:49:18;3.70;99.90
60868;DHT22;46702;48.370;10.794;2023-04-03T09:51:45;3.80;99.90
60868;DHT22;46702;48.370;10.794;2023-04-03T09:56:57;3.80;99.90
60868;DHT22;46702;48.370;10.794;2023-04-03T09:59:25;3.80;99.90
60868;DHT22;46702;48.370;10.794;2023-04-03T10:02:00;3.80;99.90
60868;DHT22;46702;48.370;10.794;2023-04-03T10:04:39;3.80;99.90
60868;DHT22;46702;48.370;10.794;2023-04-03T10:07:29;3.80;99.90
60868;DHT22;46702;48.370;10.794;2023-04-03T10:10:01;3.80;99.90
60868;DHT22;46702;48.370;10.794;2023-04-03T10:12:27;3.90;99.90
60868;DHT22;46702;48.370;10.794;2023-04-03T10:14:54;3.90;99.90
60868;DHT22;46702;48.370;10.794;2023-04-03T10:19:57;4.10;99.90
60868;DHT22;46702;48.370;10.794;2023-04-03T10:28:53;4.30;99.90
60868;DHT22;46702;48.370;10.794;2023-04-03T10:31:44;4.20;99.90
60868;DHT22;46702;48.370;10.794;2023-04-03T10:34:24;4.30;99.90
60868;DHT22;46702;48.370;10.794;2023-04-03T10:37:15;4.30;99.90
60868;DHT22;46702;48.370;10.794;2023-04-03T10:39:57;4.30;99.90
60868;DHT22;46702;48.370;10.794;2023-04-03T10:42:39;4.20;99.90
60868;DHT22;46702;48.370;10.794;2023-04-03T10:50:29;4.10;99.90
60868;DHT22;46702;48.370;10.794;2023-04-03T10:53:24;4.10;99.90
60868;DHT22;46702;48.370;10.794;2023-04-03T10:58:33;4.20;99.90
60868;DHT22;46702;48.370;10.794;2023-04-03T11:01:06;4.30;99.90
60868;DHT22;46702;48.370;10.794;2023-04-03T11:03:38;4.30;99.90
60868;DHT22;46702;48.370;10.794;2023-04-03T11:06:09;4.40;99.90
60868;DHT22;46702;48.370;10.794;2023-04-03T11:08:56;4.40;99.90
60868;DHT22;46702;48.370;10.794;2023-04-03T11:11:26;4.40;99.90
60868;DHT22;46702;48.370;10.794;2023-04-03T11:14:16;4.40;99.90
60868;DHT22;46702;48.370;10.794;2023-04-03T11:16:47;4.40;99.90
60868;DHT22;46702;48.370;10.794;2023-04-03T11:20:30;4.40;99.90
60868;DHT22;46702;48.370;10.794;2023-04-03T11:22:28;4.30;99.90
60868;DHT22;46702;48.370;10.794;2023-04-03T11:25:08;4.40;99.90
60868;DHT22;46702;48.370;10.794;2023-04-03T11:27:42;4.40;99.90
60868;DHT22;46702;48.370;10.794;2023-04-03T11:31:01;4.40;99.90
60868;DHT22;46702;48.370;10.794;2023-04-03T11:36:18;4.20;99.90
60868;DHT22;46702;48.370;10.794;2023-04-03T11:38:46;4.10;99.90
60868;DHT22;46702;48.370;10.794;2023-04-03T11:41:13;4.10;99.90
60868;DHT22;46702;48.370;10.794;2023-04-03T11:43:42;4.10;99.90
60868;DHT22;46702;48.370;10.794;2023-04-03T11:46:08;4.20;99.90
60868;DHT22;46702;48.370;10.794;2023-04-03T11:53:51;4.00;99.90
60868;DHT22;46702;48.370;10.794;2023-04-03T12:01:51;4.20;99.90
60868;DHT22;46702;48.370;10.794;2023-04-03T12:04:20;4.30;99.90
60868;DHT22;46702;48.370;10.794;2023-04-03T12:12:31;4.70;99.90
60868;DHT22;46702;48.370;10.794;2023-04-03T12:15:41;4.70;99.90
60868;DHT22;46702;48.370;10.794;2023-04-03T12:21:05;4.80;99.90
60868;DHT22;46702;48.370;10.794;2023-04-03T12:23:33;4.90;99.90
60868;DHT22;46702;48.370;10.794;2023-04-03T12:28:41;5.10;99.90
60868;DHT22;46702;48.370;10.794;2023-04-03T12:31:10;5.30;99.90
60868;DHT22;46702;48.370;10.794;2023-04-03T12:37:01;5.20;99.90
60868;DHT22;46702;48.370;10.794;2023-04-03T12:40:16;5.20;99.90
60868;DHT22;46702;48.370;10.794;2023-04-03T12:42:43;5.30;99.90
60868;DHT22;46702;48.370;10.794;2023-04-03T12:45:21;5.30;99.90
60868;DHT22;46702;48.370;10.794;2023-04-03T12:47:49;5.30;99.90
60868;DHT22;46702;48.370;10.794;2023-04-03T12:50:25;5.40;99.90
60868;DHT22;46702;48.370;10.794;2023-04-03T12:53:19;5.50;99.90
60868;DHT22;46702;48.370;10.794;2023-04-03T12:55:49;5.40;99.90
60868;DHT22;46702;48.370;10.794;2023-04-03T12:58:25;5.50;99.90
60868;DHT22;46702;48.370;10.794;2023-04-03T13:01:24;5.60;99.90
60868;DHT22;46702;48.370;10.794;2023-04-03T13:03:53;5.70;97.90
60868;DHT22;46702;48.370;10.794;2023-04-03T13:06:36;5.70;99.90
60868;DHT22;46702;48.370;10.794;2023-04-03T13:09:03;5.90;99.40
60868;DHT22;46702;48.370;10.794;2023-04-03T13:11:40;6.50;99.90
60868;DHT22;46702;48.370;10.794;2023-04-03T13:14:19;6.30;96.10
60868;DHT22;46702;48.370;10.794;2023-04-03T13:17:31;6.00;99.90
60868;DHT22;46702;48.370;10.794;2023-04-03T13:19:31;6.00;95.60
60868;DHT22;46702;48.370;10.794;2023-04-03T13:22:03;6.20;99.30
60868;DHT22;46702;48.370;10.794;2023-04-03T13:24:33;6.10;97.10
60868;DHT22;46702;48.370;10.794;2023-04-03T13:27:00;5.90;97.50
60868;DHT22;46702;48.370;10.794;2023-04-03T13:29:29;5.60;96.50
60868;DHT22;46702;48.370;10.794;2023-04-03T13:31:56;5.40;97.60
60868;DHT22;46702;48.370;10.794;2023-04-03T13:34:24;5.40;97.10
60868;DHT22;46702;48.370;10.794;2023-04-03T13:41:55;5.10;97.30
60868;DHT22;46702;48.370;10.794;2023-04-03T13:46:47;4.90;98.90
60868;DHT22;46702;48.370;10.794;2023-04-03T13:49:36;5.00;99.90
60868;DHT22;46702;48.370;10.794;2023-04-03T13:54:55;5.00;93.70
60868;DHT22;46702;48.370;10.794;2023-04-03T13:57:22;5.00;94.30
60868;DHT22;46702;48.370;10.794;2023-04-03T13:59:48;5.10;90.50
60868;DHT22;46702;48.370;10.794;2023-04-03T14:02:21;5.20;90.10
60868;DHT22;46702;48.370;10.794;2023-04-03T14:04:55;5.20;94.90
60868;DHT22;46702;48.370;10.794;2023-04-03T14:07:23;5.30;88.80
60868;DHT22;46702;48.370;10.794;2023-04-03T14:09:49;5.50;95.70
60868;DHT22;46702;48.370;10.794;2023-04-03T14:12:24;5.60;91.40
60868;DHT22;46702;48.370;10.794;2023-04-03T14:14:51;5.70;91.60
60868;DHT22;46702;48.370;10.794;2023-04-03T14:17:20;5.70;95.60
60868;DHT22;46702;48.370;10.794;2023-04-03T14:19:46;5.60;91.20
60868;DHT22;46702;48.370;10.794;2023-04-03T14:22:21;5.50;90.90
60868;DHT22;46702;48.370;10.794;2023-04-03T14:24:48;5.40;92.60
60868;DHT22;46702;48.370;10.794;2023-04-03T14:29:45;5.50;94.00
60868;DHT22;46702;48.370;10.794;2023-04-03T14:32:16;6.00;91.60
60868;DHT22;46702;48.370;10.794;2023-04-03T14:34:43;6.50;85.30
60868;DHT22;46702;48.370;10.794;2023-04-03T14:37:11;6.20;71.80
60868;DHT22;46702;48.370;10.794;2023-04-03T14:39:37;5.60;71.30
60868;DHT22;46702;48.370;10.794;2023-04-03T14:42:03;5.30;76.50
60868;DHT22;46702;48.370;10.794;2023-04-03T14:44:29;5.20;74.20
60868;DHT22;46702;48.370;10.794;2023-04-03T14:46:55;5.20;74.60
60868;DHT22;46702;48.370;10.794;2023-04-03T14:49:24;5.10;71.00
60868;DHT22;46702;48.370;10.794;2023-04-03T14:51:50;5.00;74.00
60868;DHT22;46702;48.370;10.794;2023-04-03T14:54:18;5.10;75.70
60868;DHT22;46702;48.370;10.794;2023-04-03T14:56:46;5.50;83.90
60868;DHT22;46702;48.370;10.794;2023-04-03T14:59:13;5.80;74.30
60868;DHT22;46702;48.370;10.794;2023-04-03T15:01:40;5.90;77.30
60868;DHT22;46702;48.370;10.794;2023-04-03T15:04:17;5.80;68.60
60868;DHT22;46702;48.370;10.794;2023-04-03T15:06:42;5.80;73.00
60868;DHT22;46702;48.370;10.794;2023-04-03T15:09:24;5.80;68.20
60868;DHT22;46702;48.370;10.794;2023-04-03T15:11:51;5.80;68.20
60868;DHT22;46702;48.370;10.794;2023-04-03T15:14:17;5.70;67.10
60868;DHT22;46702;48.370;10.794;2023-04-03T15:16:43;5.70;69.50
60868;DHT22;46702;48.370;10.794;2023-04-03T15:19:10;5.80;74.80
60868;DHT22;46702;48.370;10.794;2023-04-03T15:21:36;6.00;70.60
60868;DHT22;46702;48.370;10.794;2023-04-03T15:24:01;5.90;69.70
60868;DHT22;46702;48.370;10.794;2023-04-03T15:26:27;5.70;68.40
60868;DHT22;46702;48.370;10.794;2023-04-03T15:28:53;5.90;77.10
60868;DHT22;46702;48.370;10.794;2023-04-03T15:31:18;6.00;67.80
60868;DHT22;46702;48.370;10.794;2023-04-03T15:33:44;5.90;70.20
60868;DHT22;46702;48.370;10.794;2023-04-03T15:36:10;5.90;69.10
60868;DHT22;46702;48.370;10.794;2023-04-03T15:38:36;6.10;66.10
60868;DHT22;46702;48.370;10.794;2023-04-03T15:41:03;6.00;72.00
60868;DHT22;46702;48.370;10.794;2023-04-03T15:43:29;5.90;67.70
60868;DHT22;46702;48.370;10.794;2023-04-03T15:45:57;5.60;66.00
60868;DHT22;46702;48.370;10.794;2023-04-03T15:48:24;5.40;62.90
60868;DHT22;46702;48.370;10.794;2023-04-03T15:50:49;5.40;60.70
60868;DHT22;46702;48.370;10.794;2023-04-03T15:53:15;5.20;62.10
60868;DHT22;46702;48.370;10.794;2023-04-03T15:55:41;5.20;64.20
60868;DHT22;46702;48.370;10.794;2023-04-03T15:58:07;5.20;63.70
60868;DHT22;46702;48.370;10.794;2023-04-03T16:00:33;5.30;60.50
60868;DHT22;46702;48.370;10.794;2023-04-03T16:03:10;5.40;64.40
60868;DHT22;46702;48.370;10.794;2023-04-03T16:05:37;5.60;61.60
60868;DHT22;46702;48.370;10.794;2023-04-03T16:08:03;5.90;69.70
60868;DHT22;46702;48.370;10.794;2023-04-03T16:10:29;6.00;60.30
60868;DHT22;46702;48.370;10.794;2023-04-03T16:12:55;6.00;63.80
60868;DHT22;46702;48.370;10.794;2023-04-03T16:15:21;5.90;62.50
60868;DHT22;46702;48.370;10.794;2023-04-03T16:17:46;5.80;61.10
60868;DHT22;46702;48.370;10.794;2023-04-03T16:20:14;5.60;60.80
60868;DHT22;46702;48.370;10.794;2023-04-03T16:22:41;5.20;61.30
60868;DHT22;46702;48.370;10.794;2023-04-03T16:25:08;5.00;62.90
60868;DHT22;46702;48.370;10.794;2023-04-03T16:27:34;4.90;64.80
60868;DHT22;46702;48.370;10.794;2023-04-03T16:30:00;4.90;62.10
60868;DHT22;46702;48.370;10.794;2023-04-03T16:32:31;4.90;60.90
60868;DHT22;46702;48.370;10.794;2023-04-03T16:35:03;4.80;62.00
60868;DHT22;46702;48.370;10.794;2023-04-03T16:37:29;4.80;62.50
60868;DHT22;46702;48.370;10.794;2023-04-03T16:39:55;4.80;64.80
60868;DHT22;46702;48.370;10.794;2023-04-03T16:42:21;4.80;64.90
60868;DHT22;46702;48.370;10.794;2023-04-03T16:44:49;5.00;69.70
60868;DHT22;46702;48.370;10.794;2023-04-03T16:47:15;5.10;66.90
60868;DHT22;46702;48.370;10.794;2023-04-03T16:49:45;5.30;62.30
60868;DHT22;46702;48.370;10.794;2023-04-03T16:52:11;5.50;65.90
60868;DHT22;46702;48.370;10.794;2023-04-03T16:54:42;5.50;62.80
60868;DHT22;46702;48.370;10.794;2023-04-03T16:57:08;5.40;62.80
60868;DHT22;46702;48.370;10.794;2023-04-03T16:59:33;5.30;58.80
60868;DHT22;46702;48.370;10.794;2023-04-03T17:01:59;5.20;58.70
60868;DHT22;46702;48.370;10.794;2023-04-03T17:04:25;5.10;61.00
60868;DHT22;46702;48.370;10.794;2023-04-03T17:06:51;4.80;61.80
60868;DHT22;46702;48.370;10.794;2023-04-03T17:09:17;4.80;62.20